Time;durP1;ratioP1;P1;durP2;ratioP2;P2;SDS_P1;SDS_P2;PMS_P1;PMS_P2;Temp;Humidity;BMP_temperature;BMP_pressure;BME280_temperature;BME280_humidity;BME280_pressure;Samples;Min_cycle;Max_cycle;Signal;HPM_P1;HPM_P2
2021/06/15 00:03:26;;;;;;;14.30;4.03;;;;;;;9.52;100.00;94751.63;10489787;28;20028;-74
2021/06/15 00:08:27;;;;;;;6.83;4.00;;;;;;;9.53;100.00;94742.53;10488450;28;20032;-74
2021/06/15 00:13:28;;;;;;;11.18;4.00;;;;;;;9.52;100.00;94745.47;10489064;28;20282;-73
2021/06/15 00:18:28;;;;;;;5.20;3.58;;;;;;;9.49;100.00;94725.34;10488936;28;20029;-74
2021/06/15 00:23:29;;;;;;;5.25;4.00;;;;;;;9.51;100.00;94728.56;10488139;28;20403;-73
2021/06/15 00:28:29;;;;;;;9.00;4.27;;;;;;;9.44;100.00;94735.25;10488552;28;20025;-73
2021/06/15 00:33:29;;;;;;;8.57;4.50;;;;;;;9.51;100.00;94735.81;10488732;28;20750;-73
2021/06/15 00:38:30;;;;;;;5.13;4.50;;;;;;;9.50;100.00;94739.56;10530009;28;20257;-73
2021/06/15 00:43:30;;;;;;;7.28;4.18;;;;;;;9.45;100.00;94751.09;10529440;28;20402;-73
2021/06/15 00:48:34;;;;;;;6.73;4.20;;;;;;;9.62;100.00;94750.06;10493389;28;20031;-73
2021/06/15 00:53:35;;;;;;;8.88;4.70;;;;;;;9.73;100.00;94749.78;10487553;28;20864;-73
2021/06/15 00:58:36;;;;;;;5.97;4.00;;;;;;;9.79;100.00;94757.84;10487495;28;20487;-73
2021/06/15 01:03:36;;;;;;;3.85;3.40;;;;;;;9.74;100.00;94746.03;10487946;28;20025;-73
2021/06/15 01:08:47;;;;;;;8.23;4.20;;;;;;;9.79;100.00;94745.22;10487135;28;20463;-73
2021/06/15 01:14:26;;;;;;;3.75;3.45;;;;;;;9.88;100.00;94750.88;10486840;28;20028;-73
2021/06/15 01:20:00;;;;;;;4.00;3.60;;;;;;;9.92;100.00;94743.88;10487797;28;20431;-73
2021/06/15 01:25:15;;;;;;;5.00;3.13;;;;;;;9.97;100.00;94748.47;10485827;28;20035;-73
2021/06/15 01:30:18;;;;;;;4.53;3.25;;;;;;;9.77;100.00;94735.81;10486722;28;20025;-73
2021/06/15 01:35:21;;;;;;;5.88;3.55;;;;;;;9.64;100.00;94727.25;10486119;28;20462;-73
2021/06/15 01:40:24;;;;;;;6.55;3.28;;;;;;;9.55;100.00;94715.41;10486992;28;20025;-72
2021/06/15 01:45:36;;;;;;;4.95;3.95;;;;;;;9.39;100.00;94712.72;10497333;28;20032;-73
2021/06/15 01:50:39;;;;;;;7.10;4.15;;;;;;;9.28;100.00;94710.28;10528364;28;20593;-73
2021/06/15 01:55:44;;;;;;;5.38;3.95;;;;;;;9.17;100.00;94706.78;10528586;28;20031;-73
2021/06/15 02:00:46;;;;;;;7.72;4.57;;;;;;;9.24;100.00;94710.00;10527899;28;20059;-73
2021/06/15 02:05:51;;;;;;;7.43;4.55;;;;;;;9.22;100.00;94712.97;10530037;28;20032;-73
2021/06/15 02:10:52;;;;;;;12.15;5.05;;;;;;;9.30;100.00;94703.56;10535948;28;20063;-73
2021/06/15 02:15:54;;;;;;;8.20;4.75;;;;;;;9.24;100.00;94704.66;10535276;28;20582;-73
2021/06/15 02:20:56;;;;;;;7.25;5.60;;;;;;;9.37;100.00;94700.66;10535091;28;20871;-73
2021/06/15 02:26:05;;;;;;;9.45;5.30;;;;;;;9.47;100.00;94705.22;10535704;28;20024;-73
2021/06/15 02:31:09;;;;;;;11.10;4.47;;;;;;;9.59;100.00;94708.44;10534947;28;20043;-73
2021/06/15 02:36:31;;;;;;;5.45;4.13;;;;;;;9.71;100.00;94703.63;10534249;28;20052;-73
2021/06/15 02:41:35;;;;;;;7.20;4.80;;;;;;;9.74;100.00;94705.78;10534689;28;20031;-73
2021/06/15 02:46:37;;;;;;;6.20;4.30;;;;;;;9.72;100.00;94707.91;10514102;28;20066;-73
2021/06/15 02:51:44;;;;;;;18.38;5.07;;;;;;;9.65;100.00;94720.78;10492457;28;20082;-73
2021/06/15 02:56:49;;;;;;;7.60;3.92;;;;;;;9.58;100.00;94721.03;10492230;28;20031;-73
2021/06/15 03:01:51;;;;;;;8.15;4.38;;;;;;;9.59;100.00;94719.19;10492661;28;20040;-73
2021/06/15 03:06:51;;;;;;;5.43;4.30;;;;;;;9.54;100.00;94725.34;10491708;28;20077;-73
2021/06/15 03:12:12;;;;;;;10.40;4.75;;;;;;;9.44;100.00;94744.09;10491358;28;20463;-73
2021/06/15 03:17:13;;;;;;;6.35;4.45;;;;;;;9.55;100.00;94771.75;10491537;28;20040;-73
2021/06/15 03:22:17;;;;;;;11.98;4.97;;;;;;;9.50;100.00;94775.25;10491098;28;20436;-73
2021/06/15 03:27:24;;;;;;;9.32;5.55;;;;;;;9.55;100.00;94785.19;10490744;28;20035;-73
2021/06/15 03:32:27;;;;;;;12.98;4.88;;;;;;;9.62;100.00;94801.81;10490774;28;20500;-73
2021/06/15 03:37:29;;;;;;;9.27;5.15;;;;;;;9.79;100.00;94814.22;10490391;28;20452;-73
2021/06/15 03:42:38;;;;;;;6.38;4.38;;;;;;;9.91;100.00;94798.66;10490324;28;20384;-73
2021/06/15 03:47:41;;;;;;;7.13;5.03;;;;;;;9.99;100.00;94782.03;10519277;28;20015;-73
2021/06/15 03:52:42;;;;;;;7.18;5.15;;;;;;;10.00;100.00;94772.06;10531901;28;20084;-73
2021/06/15 03:57:44;;;;;;;15.50;5.20;;;;;;;10.05;100.00;94766.72;10511952;28;20033;-75
2021/06/15 04:02:49;;;;;;;8.32;4.90;;;;;;;10.15;100.00;94782.81;10532055;28;20020;-73
2021/06/15 04:07:51;;;;;;;10.55;5.32;;;;;;;10.21;100.00;94789.00;10530449;28;20074;-74
2021/06/15 04:12:52;;;;;;;6.68;5.28;;;;;;;10.21;100.00;94797.88;10521880;28;20024;-73
2021/06/15 04:17:57;;;;;;;13.57;5.78;;;;;;;10.27;100.00;94812.91;10508589;28;20397;-73
2021/06/15 04:23:01;;;;;;;11.93;6.00;;;;;;;10.47;100.00;94805.94;10529275;28;20020;-73
2021/06/15 04:28:03;;;;;;;8.82;5.25;;;;;;;10.47;100.00;94813.19;10527870;28;20031;-74
2021/06/15 04:33:08;;;;;;;8.57;4.85;;;;;;;10.55;100.00;94800.00;10523690;28;20466;-73
2021/06/15 04:38:12;;;;;;;5.90;4.57;;;;;;;10.83;100.00;94808.56;10486212;28;20112;-73
2021/06/15 04:43:36;;;;;;;12.18;5.18;;;;;;;11.45;100.00;94802.94;10501870;28;20028;-73
2021/06/15 04:48:38;;;;;;;7.32;5.50;;;;;;;11.80;100.00;94795.75;10486075;28;20314;-73
2021/06/15 04:53:43;;;;;;;8.82;4.57;;;;;;;12.24;100.00;94797.63;10485880;28;20052;-73
2021/06/15 04:58:44;;;;;;;13.65;4.50;;;;;;;12.47;100.00;94790.72;10485702;28;20028;-73
2021/06/15 05:03:45;;;;;;;6.32;3.85;;;;;;;12.90;100.00;94787.31;10485673;28;20024;-73
2021/06/15 05:08:52;;;;;;;9.07;4.28;;;;;;;13.23;100.00;94795.59;10485892;28;20035;-73
2021/06/15 05:13:54;;;;;;;13.25;4.90;;;;;;;13.48;100.00;94797.19;10483937;28;20035;-73
2021/06/15 05:18:58;;;;;;;12.70;4.30;;;;;;;13.57;100.00;94793.84;10483981;28;20449;-73
2021/06/15 05:24:03;;;;;;;10.23;4.00;;;;;;;13.69;100.00;94794.22;10484798;28;20090;-73
2021/06/15 05:29:04;;;;;;;7.25;4.03;;;;;;;13.67;100.00;94804.50;10484986;28;20380;-73
2021/06/15 05:34:04;;;;;;;14.63;4.67;;;;;;;13.85;100.00;94809.09;10485018;28;20052;-73
2021/06/15 05:39:05;;;;;;;14.17;4.10;;;;;;;14.15;100.00;94809.78;10485736;28;20085;-73
2021/06/15 05:44:05;;;;;;;9.80;4.60;;;;;;;14.49;100.00;94824.13;10493230;28;20441;-73
2021/06/15 05:49:06;;;;;;;6.65;5.13;;;;;;;14.44;100.00;94821.47;10492939;28;20028;-73
2021/06/15 05:54:07;;;;;;;7.17;5.43;;;;;;;14.84;100.00;94824.63;10492750;28;20032;-73
2021/06/15 05:59:07;;;;;;;6.18;4.13;;;;;;;14.44;100.00;94821.47;10492317;28;20789;-73
2021/06/15 06:04:10;;;;;;;10.33;5.57;;;;;;;14.84;100.00;94813.81;10492444;28;20024;-73
2021/06/15 06:09:10;;;;;;;17.38;5.10;;;;;;;15.35;100.00;94817.47;10492335;28;20271;-73
2021/06/15 06:14:12;;;;;;;10.57;4.43;;;;;;;16.22;100.00;94803.97;10492239;28;20055;-73
2021/06/15 06:19:14;;;;;;;8.55;3.53;;;;;;;16.86;100.00;94816.53;10507244;28;20028;-73
2021/06/15 06:24:17;;;;;;;5.38;2.75;;;;;;;17.36;100.00;94800.03;10490328;28;20044;-73
2021/06/15 06:29:19;;;;;;;12.48;4.50;;;;;;;18.19;100.00;94806.59;10496011;28;20020;-74
2021/06/15 06:34:19;;;;;;;18.45;4.22;;;;;;;18.56;100.00;94801.63;10530835;28;20830;-73
2021/06/15 06:39:19;;;;;;;5.60;3.43;;;;;;;19.37;99.02;94798.34;10502631;28;20028;-74
2021/06/15 06:44:20;;;;;;;5.90;3.00;;;;;;;19.85;90.53;94793.66;10524337;28;20269;-74
2021/06/15 06:49:20;;;;;;;5.10;3.10;;;;;;;20.25;88.05;94799.47;10533927;28;20035;-74
2021/06/15 06:54:21;;;;;;;7.13;3.03;;;;;;;20.51;79.32;94792.97;10519055;28;20089;-75
2021/06/15 06:59:21;;;;;;;4.63;3.15;;;;;;;21.02;82.42;94781.09;10506825;28;20374;-72
2021/06/15 07:04:21;;;;;;;9.43;3.43;;;;;;;21.81;75.43;94775.44;10533695;28;20039;-71
2021/06/15 07:09:22;;;;;;;11.27;2.87;;;;;;;22.95;65.45;94757.94;10533393;28;20787;-71
2021/06/15 07:14:22;;;;;;;5.97;2.33;;;;;;;22.97;59.83;94757.59;10533546;28;20028;-76
2021/06/15 07:19:22;;;;;;;8.60;3.10;;;;;;;22.35;63.41;94763.38;10533490;28;20119;-74
2021/06/15 07:24:23;;;;;;;5.03;2.67;;;;;;;21.32;67.12;94754.34;10532805;28;20273;-76
2021/06/15 07:29:23;;;;;;;18.43;3.53;;;;;;;20.57;76.46;94758.06;10530743;28;20031;-76
2021/06/15 07:34:24;;;;;;;7.18;3.50;;;;;;;20.80;77.95;94763.97;10524364;28;20506;-76
2021/06/15 07:39:24;;;;;;;5.93;2.83;;;;;;;21.73;71.96;94758.03;10533540;28;20776;-76
2021/06/15 07:44:25;;;;;;;7.77;2.60;;;;;;;23.29;63.85;94738.44;10532462;28;20028;-75
2021/06/15 07:49:25;;;;;;;4.40;2.50;;;;;;;24.69;56.04;94743.47;10531340;28;20035;-75
2021/06/15 07:54:26;;;;;;;3.75;2.25;;;;;;;25.62;49.79;94727.00;10530301;28;20036;-75
2021/06/15 07:59:26;;;;;;;8.33;2.33;;;;;;;26.18;48.22;94726.25;10529607;28;20036;-75
2021/06/15 08:04:27;;;;;;;4.07;2.93;;;;;;;27.18;46.15;94723.00;10528880;28;20040;-75
2021/06/15 08:09:27;;;;;;;7.70;2.63;;;;;;;27.85;44.57;94718.38;10531987;28;20102;-75
2021/06/15 08:14:27;;;;;;;5.90;1.70;;;;;;;26.72;42.13;94720.56;10531018;28;20062;-73
2021/06/15 08:19:28;;;;;;;2.83;1.87;;;;;;;25.13;46.11;94706.53;10529359;28;20028;-75
2021/06/15 08:24:28;;;;;;;5.13;2.00;;;;;;;25.82;49.46;94714.72;10530935;28;20114;-75
2021/06/15 08:29:29;;;;;;;8.30;1.87;;;;;;;25.49;45.88;94704.41;10528246;28;20367;-75
2021/06/15 08:34:29;;;;;;;7.40;2.07;;;;;;;26.60;45.12;94696.81;10488045;28;20060;-75
2021/06/15 08:39:29;;;;;;;9.20;2.80;;;;;;;27.55;42.25;94700.06;10488215;28;20377;-75
2021/06/15 08:44:30;;;;;;;5.53;1.30;;;;;;;27.92;40.28;94695.56;10488508;28;20824;-75
2021/06/15 08:49:31;;;;;;;5.25;1.63;;;;;;;28.04;41.92;94700.00;10487517;28;20032;-75
2021/06/15 08:54:31;;;;;;;4.40;1.70;;;;;;;27.40;39.83;94699.16;10488182;28;20029;-75
2021/06/15 08:59:32;;;;;;;3.40;1.35;;;;;;;25.63;45.40;94701.06;10488018;28;20043;-75
2021/06/15 09:04:36;;;;;;;8.88;2.13;;;;;;;24.98;47.03;94694.50;10487175;28;20097;-75
2021/06/15 09:09:49;;;;;;;2.60;1.40;;;;;;;24.54;46.95;94682.72;10487890;28;20099;-74
2021/06/15 09:14:51;;;;;;;6.65;1.70;;;;;;;26.79;43.54;94676.53;10484923;28;20035;-74
2021/06/15 09:19:51;;;;;;;6.55;1.80;;;;;;;28.20;40.84;94683.09;10487074;28;20039;-75
2021/06/15 09:24:53;;;;;;;7.40;1.80;;;;;;;27.23;41.55;94677.72;10486579;28;20055;-75
2021/06/15 09:29:55;;;;;;;1.48;0.90;;;;;;;26.27;40.60;94668.09;10491999;28;20073;-74
2021/06/15 09:34:59;;;;;;;1.88;0.90;;;;;;;24.90;43.03;94668.84;10528353;28;20060;-75
2021/06/15 09:40:03;;;;;;;3.55;1.05;;;;;;;24.50;44.09;94661.84;10526972;28;20028;-75
2021/06/15 09:45:18;;;;;;;2.50;1.10;;;;;;;24.75;44.60;94654.06;10529379;28;20036;-75
2021/06/15 09:50:23;;;;;;;8.77;2.58;;;;;;;24.93;47.56;94654.38;10528423;28;20035;-75
2021/06/15 09:55:23;;;;;;;3.47;1.92;;;;;;;26.05;44.45;94651.31;10528701;28;20873;-75
2021/06/15 10:00:24;;;;;;;1.52;0.80;;;;;;;26.14;41.81;94653.00;10529040;28;20032;-75
2021/06/15 10:05:32;;;;;;;3.50;1.17;;;;;;;27.70;37.71;94647.69;10527935;28;20040;-75
2021/06/15 10:10:38;;;;;;;1.70;1.15;;;;;;;27.82;41.42;94649.34;10528500;28;20274;-75
2021/06/15 10:15:41;;;;;;;1.70;1.10;;;;;;;29.35;36.84;94643.81;10528604;28;20056;-75
2021/06/15 10:20:41;;;;;;;2.88;1.10;;;;;;;29.23;38.34;94643.00;10527844;28;20059;-75
2021/06/15 10:25:43;;;;;;;8.30;1.13;;;;;;;26.78;39.65;94642.66;10528138;28;20090;-75
2021/06/15 10:30:44;;;;;;;3.90;1.20;;;;;;;23.26;44.61;94654.16;10535418;28;20027;-75
2021/06/15 10:35:45;;;;;;;5.18;1.27;;;;;;;22.05;52.23;94640.50;10534794;28;20040;-75
2021/06/15 10:40:47;;;;;;;4.03;1.60;;;;;;;22.26;56.02;94629.34;10534435;28;20040;-75
2021/06/15 10:45:53;;;;;;;7.10;2.78;;;;;;;23.11;58.14;94637.34;10535308;28;20028;-75
2021/06/15 10:50:56;;;;;;;5.22;1.60;;;;;;;24.37;48.79;94623.53;10533986;28;20399;-75
2021/06/15 10:56:08;;;;;;;24.90;18.00;;;;;;;24.34;47.29;94618.00;10534228;28;20032;-75
2021/06/15 11:01:16;;;;;;;4.25;1.20;;;;;;;24.91;43.71;94605.25;10534119;28;20641;-75
2021/06/15 11:06:18;;;;;;;4.53;1.05;;;;;;;24.66;46.07;94607.59;10534618;28;20804;-75
2021/06/15 11:11:20;;;;;;;1.75;0.90;;;;;;;22.92;48.70;94601.66;10533844;28;20032;-75
2021/06/15 11:16:35;;;;;;;2.60;0.95;;;;;;;22.84;53.98;94600.69;10532332;28;20534;-75
2021/06/15 11:22:33;;;;;;;4.40;1.48;;;;;;;23.46;50.20;94600.16;10532522;28;20050;-75
2021/06/15 11:27:37;;;;;;;7.82;1.90;;;;;;;23.25;54.97;94589.50;10524563;28;20036;-75
2021/06/15 11:32:38;;;;;;;4.53;0.88;;;;;;;22.91;53.76;94584.41;10502643;28;20197;-75
2021/06/15 11:37:38;;;;;;;4.97;1.52;;;;;;;22.77;56.53;94584.84;10490746;28;20027;-75
2021/06/15 11:42:39;;;;;;;3.53;1.20;;;;;;;22.61;53.08;94582.13;10490695;28;20025;-75
2021/06/15 11:47:49;;;;;;;4.05;1.80;;;;;;;22.26;58.42;94582.03;10490430;28;20029;-75
2021/06/15 11:52:51;;;;;;;17.15;9.57;;;;;;;22.53;57.41;94577.63;10490111;28;20029;-75
2021/06/15 11:58:15;;;;;;;2.63;1.63;;;;;;;22.48;54.82;94586.09;10490384;28;20111;-75
2021/06/15 12:03:18;;;;;;;2.88;1.20;;;;;;;22.09;63.72;94567.50;10490131;28;20020;-75
2021/06/15 12:08:20;;;;;;;2.35;1.13;;;;;;;21.93;61.84;94562.00;10489628;28;20016;-75
2021/06/15 12:13:26;;;;;;;3.03;1.20;;;;;;;21.20;62.23;94560.31;10489916;28;20032;-75
2021/06/15 12:18:27;;;;;;;2.70;1.40;;;;;;;21.16;62.11;94562.94;10489232;28;20483;-75
2021/06/15 12:23:34;;;;;;;3.30;2.03;;;;;;;21.53;67.97;94568.34;10488991;28;20024;-75
2021/06/15 12:28:40;;;;;;;1.60;0.93;;;;;;;21.17;58.61;94559.88;10489253;28;20020;-75
2021/06/15 12:33:42;;;;;;;2.55;1.25;;;;;;;21.09;62.35;94558.06;10526204;28;20051;-75
2021/06/15 12:38:44;;;;;;;6.18;1.40;;;;;;;21.28;66.87;94565.66;10530744;28;20402;-75
2021/06/15 12:43:45;;;;;;;1.58;1.13;;;;;;;20.78;66.77;94572.34;10530617;28;20044;-75
2021/06/15 12:49:07;;;;;;;4.90;1.45;;;;;;;20.94;67.26;94562.28;10529226;28;20027;-75
2021/06/15 12:54:19;;;;;;;3.80;1.30;;;;;;;20.77;75.57;94554.34;10518022;28;20062;-75
2021/06/15 12:59:19;;;;;;;6.78;1.25;;;;;;;20.90;73.76;94564.09;10529829;28;20024;-75
2021/06/15 13:04:22;;;;;;;2.10;1.37;;;;;;;21.28;68.25;94556.63;10529782;28;20020;-75
2021/06/15 13:09:27;;;;;;;1.38;1.13;;;;;;;21.14;72.43;94552.34;10529258;28;20265;-75
2021/06/15 13:14:30;;;;;;;3.13;1.35;;;;;;;20.60;76.76;94549.88;10529092;28;20032;-75
2021/06/15 13:19:52;;;;;;;3.15;1.55;;;;;;;20.86;65.26;94544.09;10527542;28;20129;-75
2021/06/15 13:24:52;;;;;;;1.70;1.15;;;;;;;20.92;66.25;94528.28;10528878;28;20038;-75
2021/06/15 13:29:54;;;;;;;4.33;1.30;;;;;;;21.14;64.05;94525.03;10522536;28;20024;-75
2021/06/15 13:34:58;;;;;;;3.80;1.67;;;;;;;21.17;63.46;94515.34;10487427;28;20298;-75
2021/06/15 13:39:58;;;;;;;4.20;1.35;;;;;;;21.03;61.99;94504.78;10485093;28;20032;-75
2021/06/15 13:45:17;;;;;;;4.68;1.15;;;;;;;21.12;62.23;94507.38;10492219;28;20028;-75
2021/06/15 13:50:20;;;;;;;2.50;1.45;;;;;;;20.96;64.46;94516.31;10508278;28;20470;-73
2021/06/15 13:55:20;;;;;;;1.92;1.50;;;;;;;20.41;62.90;94520.41;10527938;28;20766;-73
2021/06/15 14:00:21;;;;;;;2.58;1.25;;;;;;;20.22;65.72;94518.25;10527909;28;20020;-73
2021/06/15 14:05:21;;;;;;;6.57;1.48;;;;;;;20.14;64.86;94517.22;10535693;28;20034;-73
2021/06/15 14:10:24;;;;;;;7.32;2.75;;;;;;;19.90;67.62;94507.88;10535719;28;20762;-73
2021/06/15 14:15:26;;;;;;;4.82;1.42;;;;;;;19.77;66.37;94519.84;10535248;28;20020;-72
2021/06/15 14:20:30;;;;;;;11.35;0.90;;;;;;;19.71;71.93;94515.75;10534339;28;20043;-72
2021/06/15 14:25:34;;;;;;;4.82;2.67;;;;;;;19.26;73.10;94515.34;10493871;28;20043;-72
2021/06/15 14:30:37;;;;;;;5.05;1.20;;;;;;;18.98;77.34;94511.56;10521676;28;20028;-72
2021/06/15 14:35:37;;;;;;;3.88;1.70;;;;;;;18.96;80.93;94514.63;10533293;28;20412;-72
2021/06/15 14:40:38;;;;;;;2.53;1.57;;;;;;;19.39;78.93;94505.28;10532811;28;20032;-72
2021/06/15 14:45:39;;;;;;;3.42;1.67;;;;;;;19.71;75.42;94483.03;10533213;28;20288;-72
2021/06/15 14:50:40;;;;;;;5.13;1.23;;;;;;;19.72;75.11;94490.88;10532278;28;20039;-72
2021/06/15 14:55:40;;;;;;;4.43;1.47;;;;;;;19.75;75.71;94486.69;10533995;28;20062;-72
2021/06/15 15:00:41;;;;;;;5.25;1.27;;;;;;;19.70;75.62;94479.50;10532083;28;20301;-72
2021/06/15 15:05:41;;;;;;;2.65;1.17;;;;;;;19.13;79.04;94476.38;10528450;28;20039;-72
2021/06/15 15:10:42;;;;;;;1.63;1.00;;;;;;;19.03;78.02;94481.41;10532904;28;20236;-72
2021/06/15 15:15:42;;;;;;;3.50;1.57;;;;;;;19.11;79.21;94472.38;10531563;28;20318;-72
2021/06/15 15:20:43;;;;;;;4.45;2.17;;;;;;;19.21;80.88;94471.19;10533149;28;20057;-72
2021/06/15 15:25:43;;;;;;;3.22;1.40;;;;;;;19.59;80.22;94475.59;10533053;28;20024;-72
2021/06/15 15:30:44;;;;;;;4.17;2.70;;;;;;;19.60;77.28;94471.75;10530960;28;20483;-72
2021/06/15 15:35:45;;;;;;;8.13;1.83;;;;;;;19.89;76.42;94470.81;10525990;28;20294;-73
2021/06/15 15:40:45;;;;;;;2.77;1.60;;;;;;;20.09;72.06;94482.78;10515602;28;20036;-72
2021/06/15 15:45:46;;;;;;;7.40;1.85;;;;;;;20.03;71.38;94478.69;10529394;28;20560;-72
2021/06/15 15:50:48;;;;;;;4.20;1.63;;;;;;;19.87;72.97;94484.00;10531245;28;20028;-72
2021/06/15 15:55:48;;;;;;;3.47;1.10;;;;;;;19.51;76.79;94488.22;10531152;28;20278;-72
2021/06/15 16:00:48;;;;;;;3.63;1.10;;;;;;;18.98;80.12;94481.63;10525394;28;20402;-72
2021/06/15 16:05:49;;;;;;;1.67;1.10;;;;;;;18.74;78.79;94492.03;10531104;28;20487;-72
2021/06/15 16:10:49;;;;;;;1.80;1.20;;;;;;;18.43;80.40;94486.94;10531517;28;20104;-72
2021/06/15 16:15:50;;;;;;;8.30;1.47;;;;;;;18.41;82.20;94489.19;10529743;28;20028;-72
2021/06/15 16:20:50;;;;;;;3.90;1.10;;;;;;;18.32;87.84;94491.97;10529979;28;20286;-72
2021/06/15 16:25:50;;;;;;;2.93;1.27;;;;;;;18.40;87.86;94493.81;10529974;28;20030;-72
2021/06/15 16:30:51;;;;;;;10.90;2.03;;;;;;;18.51;85.68;94509.78;10530570;28;20277;-72
2021/06/15 16:35:51;;;;;;;2.70;1.80;;;;;;;18.31;85.46;94506.69;10529574;28;20047;-72
2021/06/15 16:40:52;;;;;;;4.93;1.23;;;;;;;18.41;90.55;94509.03;10529201;28;20059;-72
2021/06/15 16:45:53;;;;;;;3.88;1.27;;;;;;;18.52;91.92;94500.50;10529633;28;20032;-72
2021/06/15 16:50:53;;;;;;;2.05;1.17;;;;;;;18.55;90.77;94508.78;10528636;28;20118;-72
2021/06/15 16:55:54;;;;;;;2.47;1.23;;;;;;;18.49;90.71;94504.69;10529795;28;20034;-73
2021/06/15 17:00:54;;;;;;;3.90;1.50;;;;;;;18.55;91.91;94499.84;10526674;28;20297;-73
2021/06/15 17:05:54;;;;;;;2.67;1.50;;;;;;;18.50;89.46;94503.53;10506760;28;20627;-73
2021/06/15 17:10:55;;;;;;;5.93;1.20;;;;;;;18.50;88.39;94519.06;10519453;28;20039;-72
2021/06/15 17:15:55;;;;;;;5.30;1.77;;;;;;;18.50;91.72;94519.84;10525171;28;20817;-73
2021/06/15 17:20:56;;;;;;;5.30;1.50;;;;;;;18.46;94.65;94513.50;10525075;28;20819;-72
2021/06/15 17:25:56;;;;;;;6.95;1.77;;;;;;;18.34;90.71;94524.28;10524297;28;20402;-72
2021/06/15 17:30:57;;;;;;;10.65;1.38;;;;;;;18.27;91.13;94514.69;10525263;28;20035;-73
2021/06/15 17:35:58;;;;;;;5.00;1.40;;;;;;;17.93;98.94;94513.72;10527727;28;20116;-72
2021/06/15 17:40:58;;;;;;;3.50;1.70;;;;;;;17.77;100.00;94518.06;10533194;28;20043;-73
2021/06/15 17:45:59;;;;;;;7.65;1.92;;;;;;;17.82;98.56;94519.78;10534183;28;20032;-72
2021/06/15 17:50:59;;;;;;;3.53;1.83;;;;;;;17.77;100.00;94521.56;10531792;28;20020;-72
2021/06/15 17:56:08;;;;;;;4.60;2.03;;;;;;;17.73;100.00;94509.75;10532801;28;20350;-79
2021/06/15 18:01:09;;;;;;;6.38;1.60;;;;;;;17.59;100.00;94509.94;10533488;28;20028;-72
2021/06/15 18:06:16;;;;;;;30.37;1.80;;;;;;;17.69;100.00;94516.16;10532645;28;20039;-73
2021/06/15 18:11:22;;;;;;;3.88;2.15;;;;;;;17.45;100.00;94520.19;10532695;28;20035;-73
2021/06/15 18:16:22;;;;;;;2.40;1.60;;;;;;;17.25;100.00;94519.75;10532456;28;20043;-72
2021/06/15 18:21:23;;;;;;;2.30;1.50;;;;;;;17.08;100.00;94519.75;10530504;28;20483;-72
2021/06/15 18:26:23;;;;;;;5.20;1.27;;;;;;;17.16;100.00;94510.78;10531849;28;20281;-72
2021/06/15 18:31:25;;;;;;;5.33;1.60;;;;;;;17.05;100.00;94514.94;10530988;28;20081;-72
2021/06/15 18:36:25;;;;;;;1.55;1.20;;;;;;;16.97;100.00;94522.00;10531346;28;20294;-72
2021/06/15 18:41:25;;;;;;;2.67;1.30;;;;;;;16.95;100.00;94509.84;10531555;28;20711;-72
2021/06/15 18:46:26;;;;;;;6.00;2.30;;;;;;;16.79;100.00;94509.50;10530649;28;20028;-72
2021/06/15 18:51:30;;;;;;;5.07;1.40;;;;;;;16.82;100.00;94519.72;10530963;28;20030;-72
2021/06/15 18:56:31;;;;;;;3.63;1.10;;;;;;;16.80;100.00;94533.59;10530757;28;20031;-73
2021/06/15 19:01:35;;;;;;;2.93;1.30;;;;;;;16.84;100.00;94529.13;10530395;28;20046;-72
2021/06/15 19:06:36;;;;;;;2.53;1.40;;;;;;;16.71;100.00;94530.06;10529693;28;20060;-73
2021/06/15 19:11:36;;;;;;;4.53;1.27;;;;;;;16.56;100.00;94526.69;10529510;28;20035;-72
2021/06/15 19:16:37;;;;;;;9.85;1.50;;;;;;;16.52;100.00;94531.16;10530094;28;20272;-72
2021/06/15 19:21:37;;;;;;;1.00;0.90;;;;;;;16.42;100.00;94534.16;10529476;28;20028;-72
2021/06/15 19:26:38;;;;;;;3.67;1.40;;;;;;;16.37;100.00;94528.88;10529792;28;20127;-73
2021/06/15 19:31:38;;;;;;;5.40;1.70;;;;;;;16.37;100.00;94548.66;10508356;28;20617;-72
2021/06/15 19:36:38;;;;;;;3.13;1.30;;;;;;;16.33;100.00;94541.47;10487425;28;20032;-72
2021/06/15 19:41:39;;;;;;;3.43;1.73;;;;;;;16.18;100.00;94539.97;10487718;28;20055;-73
2021/06/15 19:46:39;;;;;;;3.72;1.42;;;;;;;16.28;100.00;94534.25;10486286;28;20032;-73
2021/06/15 19:51:40;;;;;;;3.83;1.30;;;;;;;16.00;100.00;94533.69;10486783;28;20510;-73
2021/06/15 19:56:40;;;;;;;2.63;1.40;;;;;;;15.88;100.00;94524.22;10486402;28;20488;-72
2021/06/15 20:01:46;;;;;;;4.38;1.90;;;;;;;15.82;100.00;94535.50;10485531;28;20073;-73
2021/06/15 20:06:46;;;;;;;2.17;1.58;;;;;;;15.82;100.00;94544.47;10486257;28;20063;-72
2021/06/15 20:11:47;;;;;;;2.90;1.93;;;;;;;15.77;100.00;94539.13;10485912;28;20143;-72
2021/06/15 20:16:47;;;;;;;3.67;1.90;;;;;;;15.78;100.00;94542.63;10485699;28;20035;-72
2021/06/15 20:21:47;;;;;;;1.83;1.67;;;;;;;15.92;100.00;94539.88;10485753;28;20031;-72
2021/06/15 20:26:48;;;;;;;2.27;1.73;;;;;;;15.71;100.00;94540.34;10476116;28;20024;-72
2021/06/15 20:31:49;;;;;;;6.10;1.98;;;;;;;15.83;100.00;94548.75;10484763;28;20488;-72
2021/06/15 20:36:49;;;;;;;4.97;2.03;;;;;;;15.75;100.00;94540.56;10485024;28;20028;-72
2021/06/15 20:41:50;;;;;;;4.17;2.00;;;;;;;15.79;100.00;94549.66;10484999;28;21213;-73
2021/06/15 20:46:50;;;;;;;3.57;1.73;;;;;;;15.80;100.00;94552.09;10484215;28;20270;-73
2021/06/15 20:51:54;;;;;;;3.38;2.08;;;;;;;15.80;100.00;94545.88;10484704;28;20279;-72
2021/06/15 20:56:54;;;;;;;1.83;1.65;;;;;;;15.77;100.00;94549.16;10482972;28;20772;-72
2021/06/15 21:01:55;;;;;;;1.70;1.50;;;;;;;15.76;100.00;94540.25;10482683;28;20032;-72
2021/06/15 21:06:55;;;;;;;3.05;1.77;;;;;;;15.77;100.00;94549.16;10483047;28;20275;-72
2021/06/15 21:11:55;;;;;;;3.03;2.07;;;;;;;15.82;100.00;94533.63;10482992;28;20082;-72
2021/06/15 21:16:56;;;;;;;4.57;1.77;;;;;;;15.80;100.00;94543.97;10481546;28;20278;-72
2021/06/15 21:21:56;;;;;;;2.07;1.90;;;;;;;15.84;100.00;94530.59;10481652;28;20044;-72
2021/06/15 21:26:57;;;;;;;1.88;1.52;;;;;;;15.70;100.00;94533.38;10481720;28;20024;-72
2021/06/15 21:31:57;;;;;;;4.82;1.90;;;;;;;15.75;100.00;94527.78;10481164;28;20048;-72
2021/06/15 21:36:57;;;;;;;3.40;2.13;;;;;;;15.79;100.00;94525.28;10481925;28;20024;-72
2021/06/15 21:41:58;;;;;;;6.07;2.00;;;;;;;15.72;100.00;94536.56;10482499;28;20048;-72
2021/06/15 21:46:58;;;;;;;2.40;1.70;;;;;;;15.65;100.00;94528.84;10482316;28;20027;-71
2021/06/15 21:51:59;;;;;;;3.13;2.03;;;;;;;15.73;100.00;94535.44;10482021;28;20086;-71
2021/06/15 21:56:59;;;;;;;3.20;1.53;;;;;;;15.63;100.00;94544.63;10482441;28;20024;-72
2021/06/15 22:01:59;;;;;;;3.60;2.10;;;;;;;15.69;100.00;94546.09;10482348;28;20271;-72
2021/06/15 22:07:00;;;;;;;3.42;1.63;;;;;;;15.67;100.00;94532.06;10480816;28;20025;-72
2021/06/15 22:12:00;;;;;;;5.47;2.13;;;;;;;15.74;100.00;94542.47;10481676;28;20035;-71
2021/06/15 22:17:01;;;;;;;2.33;1.77;;;;;;;15.75;100.00;94525.09;10482362;28;20275;-71
2021/06/15 22:22:01;;;;;;;3.50;2.20;;;;;;;15.78;100.00;94527.19;10482133;28;20033;-71
2021/06/15 22:27:02;;;;;;;8.40;2.95;;;;;;;15.88;100.00;94518.81;10489490;28;20034;-72
2021/06/15 22:32:04;;;;;;;3.88;1.80;;;;;;;15.85;100.00;94515.91;10490838;28;20048;-72
2021/06/15 22:37:04;;;;;;;3.97;2.40;;;;;;;15.76;100.00;94496.09;10488279;28;20029;-72
2021/06/15 22:42:05;;;;;;;4.97;2.15;;;;;;;15.66;100.00;94487.13;10488893;28;20456;-72
2021/06/15 22:47:06;;;;;;;4.38;2.03;;;;;;;15.58;100.00;94485.16;10488667;28;20016;-72
2021/06/15 22:52:06;;;;;;;3.53;2.40;;;;;;;15.42;100.00;94492.91;10488321;28;20547;-72
2021/06/15 22:57:07;;;;;;;2.60;2.38;;;;;;;15.28;100.00;94479.44;10488498;28;20758;-72
2021/06/15 23:02:08;;;;;;;2.45;2.13;;;;;;;15.35;100.00;94490.63;10487962;28;20020;-72
2021/06/15 23:07:08;;;;;;;2.72;2.17;;;;;;;15.44;100.00;94489.88;10488163;28;20742;-72
2021/06/15 23:12:10;;;;;;;2.87;2.47;;;;;;;15.50;100.00;94494.84;10487759;28;20020;-72
2021/06/15 23:17:10;;;;;;;7.53;2.42;;;;;;;15.45;100.00;94489.56;10486389;28;20111;-72
2021/06/15 23:22:11;;;;;;;3.87;2.70;;;;;;;15.53;100.00;94488.81;10486822;28;20556;-72